createdAt,value
2019-06-26T00:00:40.123Z,48.88
2019-06-26T00:03:09.502Z,49.36
2019-06-26T00:05:38.683Z,49.33
2019-06-26T00:08:07.077Z,50.66
2019-06-26T00:10:36.541Z,50.66
2019-06-26T00:13:06.221Z,50.23
2019-06-26T00:15:35.544Z,50.99
2019-06-26T00:18:06.391Z,51.17
2019-06-26T00:20:35.475Z,51.17
2019-06-26T00:23:05.068Z,51.41
2019-06-26T00:25:34.674Z,50.77
2019-06-26T00:28:02.893Z,50.78
2019-06-26T00:30:31.997Z,50.78
2019-06-26T00:33:01.157Z,50.75
2019-06-26T00:35:30.708Z,51.11
2019-06-26T00:37:59.172Z,51.76
2019-06-26T00:40:28.707Z,51.90
2019-06-26T00:42:57.354Z,52.06
2019-06-26T00:45:26.387Z,51.87
2019-06-26T00:47:55.575Z,52.05
2019-06-26T00:50:25.068Z,51.68
2019-06-26T00:52:53.962Z,51.68
2019-06-26T00:55:23.437Z,52.59
2019-06-26T00:57:52.740Z,51.85
2019-06-26T01:00:30.275Z,51.85
2019-06-26T01:02:59.548Z,52.74
2019-06-26T01:05:28.602Z,53.11
2019-06-26T01:07:58.142Z,52.56
2019-06-26T01:10:28.048Z,52.56
2019-06-26T01:12:57.548Z,51.84
2019-06-26T01:15:26.766Z,52.91
2019-06-26T01:17:55.762Z,52.73
2019-06-26T01:20:26.069Z,52.45
2019-06-26T01:22:55.287Z,52.77
2019-06-26T01:25:24.081Z,53.63
2019-06-26T01:27:54.061Z,52.92
2019-06-26T01:30:25.559Z,53.56
2019-06-26T01:32:54.537Z,54.67
2019-06-26T01:35:23.436Z,54.67
2019-06-26T01:37:52.447Z,54.99
2019-06-26T01:40:21.950Z,54.64
2019-06-26T01:42:51.461Z,54.52
2019-06-26T01:45:20.968Z,53.52
2019-06-26T01:47:50.790Z,53.52
2019-06-26T01:50:20.743Z,54.42
2019-06-26T01:52:48.937Z,54.58
2019-06-26T01:55:18.035Z,54.65
2019-06-26T01:57:48.726Z,55.22
2019-06-26T02:00:18.889Z,55.13
2019-06-26T02:02:48.050Z,55.03
2019-06-26T02:05:17.337Z,55.45
2019-06-26T02:07:46.474Z,55.53
2019-06-26T02:10:16.093Z,55.38
2019-06-26T02:12:45.089Z,55.39
2019-06-26T02:15:14.759Z,55.92
2019-06-26T02:17:43.876Z,55.80
2019-06-26T02:20:13.481Z,55.55
2019-06-26T02:22:42.812Z,55.50
2019-06-26T02:25:11.861Z,55.50
2019-06-26T02:27:41.094Z,56.08
2019-06-26T02:30:10.823Z,55.18
2019-06-26T02:32:40.496Z,54.81
2019-06-26T02:35:10.789Z,54.62
2019-06-26T02:37:39.950Z,54.24
2019-06-26T02:40:10.293Z,54.59
2019-06-26T02:42:39.928Z,55.06
2019-06-26T02:45:09.472Z,55.41
2019-06-26T02:50:29.245Z,56.19
2019-06-26T02:53:04.774Z,56.19
2019-06-26T02:55:33.042Z,55.63
2019-06-26T02:58:02.066Z,55.97
2019-06-26T03:00:31.390Z,56.40
2019-06-26T03:03:01.032Z,56.39
2019-06-26T03:05:29.970Z,56.55
2019-06-26T03:07:59.021Z,57.06
2019-06-26T03:10:27.949Z,57.25
2019-06-26T03:12:56.814Z,56.29
2019-06-26T03:15:25.762Z,56.43
2019-06-26T03:17:55.587Z,56.56
2019-06-26T03:20:32.402Z,57.23
2019-06-26T03:23:01.460Z,57.22
2019-06-26T03:25:30.693Z,57.71
2019-06-26T03:27:59.788Z,56.85
2019-06-26T03:30:28.012Z,56.85
2019-06-26T03:32:57.049Z,56.71
2019-06-26T03:35:26.566Z,56.34
2019-06-26T03:37:56.058Z,56.53
2019-06-26T03:40:25.015Z,57.48
2019-06-26T03:42:53.921Z,57.41
2019-06-26T03:45:26.203Z,57.50
2019-06-26T03:47:53.887Z,57.98
2019-06-26T03:50:23.120Z,56.80
2019-06-26T03:52:52.486Z,55.99
2019-06-26T03:55:21.608Z,55.55
2019-06-26T03:57:51.714Z,55.77
2019-06-26T04:00:35.934Z,55.77
2019-06-26T04:03:05.777Z,55.27
2019-06-26T04:05:35.337Z,54.92
2019-06-26T04:08:09.974Z,55.84
2019-06-26T04:10:38.946Z,55.21
2019-06-26T04:13:09.174Z,54.83
2019-06-26T04:15:42.463Z,53.41
2019-06-26T04:18:11.850Z,52.39
2019-06-26T04:20:41.285Z,52.11
2019-06-26T04:23:10.893Z,52.78
2019-06-26T04:25:40.146Z,52.95
2019-06-26T04:28:09.567Z,53.32
2019-06-26T04:30:38.606Z,53.47
2019-06-26T04:33:07.604Z,52.60
2019-06-26T04:35:36.787Z,51.53
2019-06-26T04:38:06.642Z,51.53
2019-06-26T04:40:35.907Z,47.32
2019-06-26T04:43:05.223Z,47.32
2019-06-26T04:45:34.461Z,44.70
2019-06-26T04:48:06.830Z,42.26
2019-06-26T04:50:34.252Z,40.87
2019-06-26T04:53:03.458Z,40.23
2019-06-26T04:55:32.637Z,38.93
2019-06-26T04:58:04.460Z,38.75
2019-06-26T05:00:35.640Z,39.41
2019-06-26T05:03:04.640Z,35.04
2019-06-26T05:05:39.533Z,34.71
2019-06-26T05:08:04.506Z,34.71
2019-06-26T05:10:33.959Z,33.10
2019-06-26T05:13:03.838Z,33.10
2019-06-26T05:15:33.314Z,31.47
2019-06-26T05:18:02.769Z,30.32
2019-06-26T05:20:31.453Z,29.70
2019-06-26T05:23:00.571Z,29.53
2019-06-26T05:25:29.758Z,29.10
2019-06-26T05:27:59.235Z,29.10
2019-06-26T05:30:30.781Z,28.09
2019-06-26T05:33:19.740Z,27.60
2019-06-26T05:35:51.018Z,26.91
2019-06-26T05:38:20.671Z,26.79
2019-06-26T05:40:50.691Z,26.21
2019-06-26T05:43:20.552Z,25.47
2019-06-26T05:45:50.327Z,24.13
2019-06-26T05:48:20.348Z,24.30
2019-06-26T05:50:53.417Z,22.55
2019-06-26T05:53:23.295Z,20.34
2019-06-26T05:55:52.806Z,20.34
2019-06-26T05:58:24.722Z,20.46
2019-06-26T06:00:54.299Z,22.65
2019-06-26T06:03:23.614Z,22.34
2019-06-26T06:05:53.530Z,21.87
2019-06-26T06:08:23.312Z,21.87
2019-06-26T06:10:53.613Z,21.63
2019-06-26T06:13:22.470Z,21.79
2019-06-26T06:15:52.594Z,21.65
2019-06-26T06:18:21.837Z,22.62
2019-06-26T06:20:51.774Z,22.62
2019-06-26T06:23:22.844Z,20.50
2019-06-26T06:25:52.816Z,19.12
2019-06-26T06:28:22.563Z,20.32
2019-06-26T06:30:52.304Z,19.49
2019-06-26T06:33:23.308Z,19.28
2019-06-26T06:35:53.548Z,17.30
2019-06-26T06:38:22.515Z,18.09
2019-06-26T06:40:52.309Z,17.70
2019-06-26T06:43:21.955Z,17.70
2019-06-26T06:45:52.046Z,19.18
2019-06-26T06:48:22.588Z,19.45
2019-06-26T06:50:51.865Z,19.56
2019-06-26T06:53:21.790Z,18.55
2019-06-26T06:55:51.774Z,16.29
2019-06-26T06:58:21.303Z,15.27
2019-06-26T07:00:51.544Z,15.29
2019-06-26T07:03:21.247Z,13.96
2019-06-26T07:05:50.558Z,16.03
2019-06-26T07:08:20.832Z,14.71
2019-06-26T07:10:50.847Z,14.71
2019-06-26T07:13:23.458Z,13.74
2019-06-26T07:15:52.972Z,13.87
2019-06-26T07:18:22.958Z,13.87
2019-06-26T07:20:52.906Z,14.86
2019-06-26T07:23:22.899Z,14.35
2019-06-26T07:25:52.669Z,14.02
2019-06-26T07:28:22.367Z,13.92
2019-06-26T07:30:52.030Z,13.92
2019-06-26T07:33:21.537Z,15.22
2019-06-26T07:35:50.494Z,15.01
2019-06-26T07:38:19.053Z,15.01
2019-06-26T07:40:48.293Z,14.14
2019-06-26T07:43:18.726Z,14.14
2019-06-26T07:45:51.489Z,12.08
2019-06-26T07:48:20.581Z,10.80
2019-06-26T07:50:50.439Z,10.80
2019-06-26T07:53:20.296Z,10.24
2019-06-26T07:55:49.713Z,12.92
2019-06-26T07:58:23.032Z,12.10
2019-06-26T08:00:52.135Z,10.73
2019-06-26T08:03:21.572Z,11.36
2019-06-26T08:05:50.453Z,10.20
2019-06-26T08:08:19.879Z,10.20
2019-06-26T08:10:49.296Z,11.36
2019-06-26T08:13:18.789Z,10.74
2019-06-26T08:15:48.506Z,9.33
2019-06-26T08:18:17.889Z,8.86
2019-06-26T08:20:55.351Z,8.86
2019-06-26T08:23:18.143Z,8.46
2019-06-26T08:25:47.509Z,8.19
2019-06-26T08:28:16.899Z,8.98
2019-06-26T08:30:45.983Z,8.54
2019-06-26T08:33:15.287Z,7.91
2019-06-26T08:35:44.807Z,8.02
2019-06-26T08:38:15.810Z,8.36
2019-06-26T08:40:45.294Z,8.13
2019-06-26T08:43:15.322Z,7.50
2019-06-26T08:45:44.652Z,7.25
2019-06-26T08:48:28.144Z,7.70
2019-06-26T08:50:45.125Z,7.37
2019-06-26T08:53:15.975Z,6.73
2019-06-26T08:55:48.735Z,6.92
2019-06-26T08:58:21.381Z,7.49
2019-06-26T09:00:52.975Z,7.95
2019-06-26T09:03:23.020Z,7.95
2019-06-26T09:05:53.783Z,7.57
2019-06-26T09:08:23.647Z,8.05
2019-06-26T09:11:07.728Z,8.24
2019-06-26T09:13:36.057Z,8.07
2019-06-26T09:16:05.545Z,7.57
2019-06-26T09:18:36.247Z,7.61
2019-06-26T09:21:06.306Z,7.46
2019-06-26T09:23:35.475Z,7.49
2019-06-26T09:26:04.598Z,7.25
2019-06-26T09:28:33.273Z,6.47
2019-06-26T09:31:02.119Z,5.91
2019-06-26T09:33:32.400Z,6.33
2019-06-26T09:36:01.585Z,6.73
2019-06-26T09:38:30.870Z,6.46
2019-06-26T09:40:59.951Z,6.59
2019-06-26T09:43:30.101Z,6.75
2019-06-26T09:45:59.599Z,6.58
2019-06-26T09:48:28.058Z,7.89
2019-06-26T09:50:57.327Z,7.89
2019-06-26T09:53:26.559Z,7.95
2019-06-26T09:55:55.594Z,7.74
2019-06-26T09:58:23.715Z,7.74
2019-06-26T10:00:53.754Z,7.76
2019-06-26T10:03:23.141Z,6.75
2019-06-26T10:05:52.556Z,7.08
2019-06-26T10:08:21.000Z,6.01
2019-06-26T10:10:50.154Z,6.01
2019-06-26T10:13:19.408Z,7.18
2019-06-26T10:15:48.769Z,6.46
2019-06-26T10:18:17.953Z,6.88
2019-06-26T10:20:46.933Z,7.12
2019-06-26T10:23:15.963Z,6.63
2019-06-26T10:25:45.629Z,6.42
2019-06-26T10:28:14.841Z,6.27
2019-06-26T10:30:44.049Z,6.05
2019-06-26T10:33:13.144Z,5.76
2019-06-26T10:35:45.158Z,5.49
2019-06-26T10:38:14.127Z,5.17
2019-06-26T10:40:43.807Z,5.08
2019-06-26T10:43:15.624Z,5.39
2019-06-26T10:45:43.946Z,5.89
2019-06-26T10:48:13.068Z,5.89
2019-06-26T10:50:49.346Z,5.89
2019-06-26T10:53:13.427Z,5.98
2019-06-26T10:55:42.439Z,4.92
2019-06-26T10:58:13.157Z,4.87
2019-06-26T11:00:44.106Z,5.13
2019-06-26T11:03:13.307Z,5.96
2019-06-26T11:05:43.405Z,7.10
2019-06-26T11:08:13.029Z,8.44
2019-06-26T11:10:46.586Z,8.29
2019-06-26T11:13:16.013Z,8.51
2019-06-26T11:15:48.652Z,9.94
2019-06-26T11:18:17.580Z,8.38
2019-06-26T11:20:46.049Z,6.98
2019-06-26T11:23:15.099Z,6.98
2019-06-26T11:25:44.635Z,6.62
2019-06-26T11:28:14.589Z,5.91
2019-06-26T11:30:44.100Z,4.99
2019-06-26T11:33:13.050Z,4.99
2019-06-26T11:35:42.501Z,5.74
2019-06-26T11:38:13.988Z,5.35
2019-06-26T11:40:43.125Z,5.35
2019-06-26T11:43:11.955Z,4.90
2019-06-26T11:45:43.192Z,5.00
2019-06-26T11:48:12.507Z,4.54
2019-06-26T11:50:41.610Z,6.43
2019-06-26T11:53:11.017Z,5.81
2019-06-26T11:55:40.399Z,5.38
2019-06-26T11:58:09.766Z,4.84
2019-06-26T12:00:41.599Z,5.39
2019-06-26T12:03:13.109Z,6.62
2019-06-26T12:05:40.928Z,6.91
2019-06-26T12:08:09.928Z,7.11
2019-06-26T12:10:39.021Z,7.21
2019-06-26T12:13:08.742Z,7.37
2019-06-26T12:15:37.836Z,7.07
2019-06-26T12:18:07.890Z,7.62
2019-06-26T12:20:37.114Z,9.02
2019-06-26T12:23:06.424Z,10.18
2019-06-26T12:25:35.759Z,9.73
2019-06-26T12:28:07.573Z,11.52
2019-06-26T12:30:39.737Z,10.40
2019-06-26T12:33:13.092Z,9.82
2019-06-26T12:35:43.969Z,9.44
2019-06-26T12:38:13.120Z,9.98
2019-06-26T12:40:42.098Z,9.72
2019-06-26T12:43:11.308Z,9.51
2019-06-26T12:45:40.424Z,10.07
2019-06-26T12:48:09.913Z,9.68
2019-06-26T12:50:39.160Z,9.20
2019-06-26T12:53:08.596Z,9.32
2019-06-26T12:55:36.966Z,9.43
2019-06-26T12:58:13.138Z,9.91
2019-06-26T13:00:37.838Z,9.80
2019-06-26T13:03:06.928Z,10.12
2019-06-26T13:05:35.941Z,10.46
2019-06-26T13:08:04.985Z,10.47
2019-06-26T13:10:48.463Z,11.30
2019-06-26T13:13:04.738Z,10.97
2019-06-26T13:15:33.031Z,12.05
2019-06-26T13:18:02.515Z,12.94
2019-06-26T13:20:32.248Z,12.38
2019-06-26T13:23:01.391Z,14.72
2019-06-26T13:25:31.056Z,14.72
2019-06-26T13:28:02.324Z,13.20
2019-06-26T13:30:38.373Z,12.77
2019-06-26T13:33:08.874Z,14.02
2019-06-26T13:35:38.543Z,14.84
2019-06-26T13:38:07.380Z,13.98
2019-06-26T13:40:42.739Z,13.98
2019-06-26T13:43:12.006Z,13.69
2019-06-26T13:45:49.863Z,15.29
2019-06-26T13:48:20.558Z,15.24
2019-06-26T13:50:50.671Z,14.79
2019-06-26T13:53:20.426Z,14.32
2019-06-26T13:55:50.184Z,14.08
2019-06-26T13:58:19.679Z,13.93
2019-06-26T14:00:48.877Z,14.86
2019-06-26T14:03:18.956Z,15.34
2019-06-26T14:05:48.578Z,15.03
2019-06-26T14:08:18.156Z,15.69
2019-06-26T14:10:48.177Z,15.69
2019-06-26T14:13:17.528Z,16.76
2019-06-26T14:15:46.005Z,16.84
2019-06-26T14:18:15.701Z,16.24
2019-06-26T14:20:45.536Z,15.49
2019-06-26T14:23:15.557Z,15.87
2019-06-26T14:25:49.954Z,15.65
2019-06-26T14:28:20.316Z,15.65
2019-06-26T14:30:49.993Z,15.95
2019-06-26T14:33:19.993Z,15.83
2019-06-26T14:35:49.661Z,16.00
2019-06-26T14:38:19.155Z,15.22
2019-06-26T14:40:48.809Z,16.11
2019-06-26T14:43:18.178Z,16.70
2019-06-26T14:45:47.982Z,16.57
2019-06-26T14:48:17.784Z,16.27
2019-06-26T14:50:47.849Z,16.59
2019-06-26T14:53:17.133Z,17.11
2019-06-26T14:55:46.729Z,17.64
2019-06-26T14:58:15.490Z,17.29
2019-06-26T15:00:44.613Z,18.18
2019-06-26T15:03:13.025Z,18.18
2019-06-26T15:05:45.492Z,18.01
2019-06-26T15:08:14.612Z,16.91
2019-06-26T15:10:44.306Z,17.35
2019-06-26T15:13:13.563Z,17.35
2019-06-26T15:15:43.132Z,17.60
2019-06-26T15:18:12.424Z,19.41
2019-06-26T15:20:41.995Z,20.16
2019-06-26T15:23:11.554Z,19.44
2019-06-26T15:25:40.117Z,18.89
2019-06-26T15:28:10.556Z,19.84
2019-06-26T15:30:40.062Z,19.54
2019-06-26T15:33:09.822Z,19.26
2019-06-26T15:35:39.305Z,18.91
2019-06-26T15:55:45.773Z,19.93
2019-06-26T15:58:14.970Z,19.67
2019-06-26T16:00:45.959Z,19.59
2019-06-26T16:03:15.084Z,19.90
2019-06-26T16:05:43.943Z,19.87
2019-06-26T16:08:13.594Z,20.06
2019-06-26T16:10:42.875Z,19.92
2019-06-26T16:13:12.004Z,19.92
2019-06-26T16:15:41.607Z,19.67
2019-06-26T16:18:22.955Z,19.92
2019-06-26T16:20:52.108Z,19.92
2019-06-26T16:23:20.954Z,20.11
2019-06-26T16:25:50.079Z,21.47
2019-06-26T16:28:18.961Z,20.48
2019-06-26T16:30:47.944Z,20.59
2019-06-26T16:33:17.420Z,21.07
2019-06-26T16:35:46.551Z,20.22
2019-06-26T16:38:16.070Z,20.02
2019-06-26T16:40:45.108Z,19.86
2019-06-26T16:43:14.130Z,19.56
2019-06-26T16:45:43.404Z,21.82
2019-06-26T16:48:12.602Z,22.05
2019-06-26T16:50:41.972Z,22.77
2019-06-26T16:53:11.503Z,22.77
2019-06-26T16:55:40.580Z,22.31
2019-06-26T16:58:08.949Z,20.72
2019-06-26T17:00:38.034Z,20.72
2019-06-26T17:03:07.337Z,21.75
2019-06-26T17:05:36.443Z,22.81
2019-06-26T17:08:05.477Z,22.44
2019-06-26T17:10:34.444Z,22.23
2019-06-26T17:13:03.441Z,22.64
2019-06-26T17:15:32.601Z,22.47
2019-06-26T17:18:01.006Z,21.44
2019-06-26T17:20:30.084Z,21.44
2019-06-26T17:23:05.583Z,21.49
2019-06-26T17:25:30.472Z,21.56
2019-06-26T17:27:59.430Z,22.17
2019-06-26T17:30:28.467Z,21.89
2019-06-26T17:32:57.769Z,21.06
2019-06-26T17:35:25.883Z,20.76
2019-06-26T17:37:54.851Z,20.82
2019-06-26T17:40:24.455Z,21.33
2019-06-26T17:42:53.509Z,21.61
2019-06-26T17:45:22.577Z,21.91
2019-06-26T17:47:51.633Z,21.88
2019-06-26T17:50:20.761Z,21.95
2019-06-26T17:52:49.744Z,21.95
2019-06-26T17:55:18.980Z,22.88
2019-06-26T17:57:48.006Z,22.85
2019-06-26T18:00:23.513Z,23.04
2019-06-26T18:02:52.637Z,23.55
2019-06-26T18:05:21.735Z,24.13
2019-06-26T18:07:49.911Z,24.13
2019-06-26T18:10:18.774Z,24.10
2019-06-26T18:12:48.818Z,23.89
2019-06-26T18:15:17.808Z,24.07
2019-06-26T18:17:46.709Z,25.20
2019-06-26T18:20:17.412Z,25.70
2019-06-26T18:22:46.470Z,25.70
2019-06-26T18:25:16.689Z,26.59
2019-06-26T18:27:45.995Z,26.41
2019-06-26T18:30:15.931Z,26.55
2019-06-26T18:32:45.052Z,26.80
2019-06-26T18:35:14.962Z,27.54
2019-06-26T18:37:44.096Z,27.55
2019-06-26T18:40:14.426Z,28.94
2019-06-26T18:42:44.814Z,28.73
2019-06-26T18:45:14.895Z,28.80
2019-06-26T18:47:44.435Z,29.40
2019-06-26T18:50:13.621Z,29.43
2019-06-26T18:52:42.637Z,29.57
2019-06-26T18:55:11.673Z,29.57
2019-06-26T18:57:40.907Z,29.80
2019-06-26T19:00:10.635Z,29.60
2019-06-26T19:02:39.675Z,29.40
2019-06-26T19:05:09.075Z,29.40
2019-06-26T19:07:38.438Z,29.84
2019-06-26T19:10:08.580Z,29.55
2019-06-26T19:12:37.640Z,30.26
2019-06-26T19:15:08.446Z,30.41
2019-06-26T19:17:37.884Z,30.41
2019-06-26T19:20:07.764Z,30.99
2019-06-26T19:22:36.716Z,32.22
2019-06-26T19:25:05.822Z,32.65
2019-06-26T19:27:34.934Z,32.59
2019-06-26T19:30:05.309Z,33.32
2019-06-26T19:32:37.321Z,33.17
2019-06-26T19:35:18.205Z,32.74
2019-06-26T19:37:36.050Z,32.83
2019-06-26T19:40:08.586Z,32.02
2019-06-26T19:42:37.447Z,32.87
2019-06-26T19:45:09.108Z,33.57
2019-06-26T19:47:37.823Z,34.61
2019-06-26T19:50:07.696Z,34.50
2019-06-26T19:52:38.654Z,34.72
2019-06-26T19:55:07.477Z,35.39
2019-06-26T19:57:36.530Z,35.39
2019-06-26T20:00:06.526Z,35.61
2019-06-26T20:02:35.442Z,36.23
2019-06-26T20:05:05.590Z,36.94
2019-06-26T20:07:34.508Z,36.56
2019-06-26T20:10:04.108Z,36.38
2019-06-26T20:12:33.025Z,36.86
2019-06-26T20:15:02.886Z,36.72
2019-06-26T20:17:32.037Z,37.64
2019-06-26T20:20:01.111Z,37.96
2019-06-26T20:22:30.446Z,37.86
2019-06-26T20:24:59.565Z,37.89
2019-06-26T20:27:27.867Z,38.01
2019-06-26T20:29:56.943Z,38.01
2019-06-26T20:32:26.160Z,38.79
2019-06-26T20:34:55.408Z,38.90
2019-06-26T20:37:24.744Z,38.57
2019-06-26T20:39:53.809Z,38.48
2019-06-26T20:42:22.774Z,38.77
2019-06-26T20:44:51.685Z,39.05
2019-06-26T20:47:21.967Z,38.94
2019-06-26T20:49:53.439Z,40.11
2019-06-26T20:52:25.482Z,39.72
2019-06-26T20:55:59.834Z,39.63
2019-06-26T20:58:28.917Z,39.45
2019-06-26T21:00:59.129Z,39.43
2019-06-26T21:03:28.117Z,39.81
2019-06-26T21:05:57.477Z,40.64
2019-06-26T21:08:29.431Z,40.73
2019-06-26T21:10:57.719Z,40.73
2019-06-26T21:13:26.918Z,41.12
2019-06-26T21:15:55.958Z,41.28
2019-06-26T21:18:24.988Z,41.32
2019-06-26T21:20:54.188Z,41.02
2019-06-26T21:23:23.663Z,41.18
2019-06-26T21:25:52.943Z,40.78
2019-06-26T21:28:21.738Z,41.29
2019-06-26T21:30:50.013Z,41.23
2019-06-26T21:33:19.013Z,41.31
2019-06-26T21:35:47.847Z,41.54
2019-06-26T21:38:16.789Z,41.20
2019-06-26T21:40:45.889Z,41.95
2019-06-26T21:43:15.116Z,42.29
2019-06-26T21:45:44.120Z,42.91
2019-06-26T21:48:13.305Z,42.65
2019-06-26T21:50:41.951Z,43.38
2019-06-26T21:53:10.988Z,43.71
2019-06-26T21:55:42.030Z,44.23
2019-06-26T21:58:29.916Z,43.92
2019-06-26T22:01:17.850Z,44.02
2019-06-26T22:04:07.310Z,43.89
2019-06-26T22:06:38.597Z,44.02
2019-06-26T22:09:27.828Z,44.65
2019-06-26T22:12:00.575Z,44.26
2019-06-26T22:14:27.854Z,44.53
2019-06-26T22:16:56.896Z,44.06
2019-06-26T22:19:26.130Z,44.20
2019-06-26T22:21:54.940Z,44.60
2019-06-26T22:24:24.043Z,44.90
2019-06-26T22:26:54.317Z,45.33
2019-06-26T22:29:25.941Z,45.74
2019-06-26T22:31:56.812Z,45.88
2019-06-26T22:34:27.012Z,46.36
2019-06-26T22:36:55.956Z,45.55
2019-06-26T22:39:24.991Z,45.62
2019-06-26T22:41:53.980Z,45.63
2019-06-26T22:44:23.172Z,45.68
2019-06-26T22:46:52.187Z,46.20
2019-06-26T22:49:21.744Z,46.17
2019-06-26T22:51:50.820Z,46.35
2019-06-26T22:54:20.084Z,46.71
2019-06-26T22:56:49.628Z,46.92
2019-06-26T22:59:18.732Z,46.47
2019-06-26T23:02:00.763Z,46.22
2019-06-26T23:04:30.131Z,45.66
2019-06-26T23:06:58.995Z,45.50
2019-06-26T23:09:28.142Z,45.85
2019-06-26T23:11:57.041Z,46.24
2019-06-26T23:14:26.067Z,46.19
2019-06-26T23:16:54.962Z,45.86
2019-06-26T23:19:24.615Z,46.59
2019-06-26T23:21:53.364Z,46.77
2019-06-26T23:24:22.484Z,47.41
2019-06-26T23:26:51.717Z,47.71
2019-06-26T23:29:19.879Z,47.75
2019-06-26T23:31:48.971Z,48.18
2019-06-26T23:34:18.142Z,47.64
2019-06-26T23:36:46.991Z,47.75
2019-06-26T23:39:16.496Z,47.66
2019-06-26T23:41:45.619Z,47.21
2019-06-26T23:44:14.790Z,47.17
2019-06-26T23:46:43.825Z,47.17
2019-06-26T23:49:12.885Z,48.18
2019-06-26T23:51:41.614Z,47.96
2019-06-26T23:54:10.561Z,47.55
2019-06-26T23:56:40.925Z,47.55
2019-06-26T23:59:10.484Z,49.26
